sensor_id;sensor_type;location;lat;lon;timestamp;P1;durP1;ratioP1;P2;durP2;ratioP2
53925;SDS011;39836;52.754;6.866;2024-03-25T00:01:07;13.00;;;4.50;;
53925;SDS011;39836;52.754;6.866;2024-03-25T00:03:32;22.80;;;5.30;;
53925;SDS011;39836;52.754;6.866;2024-03-25T00:05:58;23.05;;;5.25;;
53925;SDS011;39836;52.754;6.866;2024-03-25T00:08:24;24.98;;;6.30;;
53925;SDS011;39836;52.754;6.866;2024-03-25T00:10:50;22.95;;;6.07;;
53925;SDS011;39836;52.754;6.866;2024-03-25T00:13:15;24.58;;;5.82;;
53925;SDS011;39836;52.754;6.866;2024-03-25T00:15:41;22.63;;;6.18;;
53925;SDS011;39836;52.754;6.866;2024-03-25T00:18:08;17.52;;;5.32;;
53925;SDS011;39836;52.754;6.866;2024-03-25T00:20:36;22.08;;;6.43;;
53925;SDS011;39836;52.754;6.866;2024-03-25T00:23:02;19.98;;;5.00;;
53925;SDS011;39836;52.754;6.866;2024-03-25T00:25:28;21.95;;;6.70;;
53925;SDS011;39836;52.754;6.866;2024-03-25T00:27:53;26.10;;;5.22;;
53925;SDS011;39836;52.754;6.866;2024-03-25T00:30:19;20.17;;;5.93;;
53925;SDS011;39836;52.754;6.866;2024-03-25T00:32:45;25.08;;;6.15;;
53925;SDS011;39836;52.754;6.866;2024-03-25T00:35:11;25.35;;;5.80;;
53925;SDS011;39836;52.754;6.866;2024-03-25T00:37:37;26.25;;;5.75;;
53925;SDS011;39836;52.754;6.866;2024-03-25T00:40:03;23.52;;;5.75;;
53925;SDS011;39836;52.754;6.866;2024-03-25T00:42:29;18.27;;;5.47;;
53925;SDS011;39836;52.754;6.866;2024-03-25T00:44:55;26.33;;;6.28;;
53925;SDS011;39836;52.754;6.866;2024-03-25T00:47:21;17.90;;;5.55;;
53925;SDS011;39836;52.754;6.866;2024-03-25T00:49:47;29.70;;;6.80;;
53925;SDS011;39836;52.754;6.866;2024-03-25T00:52:12;22.27;;;5.65;;
53925;SDS011;39836;52.754;6.866;2024-03-25T00:54:38;21.10;;;5.53;;
53925;SDS011;39836;52.754;6.866;2024-03-25T00:57:03;19.08;;;5.97;;
53925;SDS011;39836;52.754;6.866;2024-03-25T00:59:29;19.02;;;5.43;;
53925;SDS011;39836;52.754;6.866;2024-03-25T01:01:55;20.58;;;5.93;;
53925;SDS011;39836;52.754;6.866;2024-03-25T01:04:20;24.20;;;5.93;;
53925;SDS011;39836;52.754;6.866;2024-03-25T01:06:46;19.30;;;5.75;;
53925;SDS011;39836;52.754;6.866;2024-03-25T01:09:12;19.02;;;5.35;;
53925;SDS011;39836;52.754;6.866;2024-03-25T01:11:38;25.58;;;6.60;;
53925;SDS011;39836;52.754;6.866;2024-03-25T01:14:03;21.83;;;5.30;;
53925;SDS011;39836;52.754;6.866;2024-03-25T01:16:29;20.73;;;5.55;;
53925;SDS011;39836;52.754;6.866;2024-03-25T01:18:54;20.15;;;5.45;;
53925;SDS011;39836;52.754;6.866;2024-03-25T01:21:20;19.17;;;5.45;;
53925;SDS011;39836;52.754;6.866;2024-03-25T01:23:46;25.27;;;5.95;;
53925;SDS011;39836;52.754;6.866;2024-03-25T01:26:11;19.48;;;5.00;;
53925;SDS011;39836;52.754;6.866;2024-03-25T01:28:37;19.63;;;5.30;;
53925;SDS011;39836;52.754;6.866;2024-03-25T01:31:03;18.52;;;5.78;;
53925;SDS011;39836;52.754;6.866;2024-03-25T01:33:29;19.42;;;5.80;;
53925;SDS011;39836;52.754;6.866;2024-03-25T01:35:55;25.10;;;6.00;;
53925;SDS011;39836;52.754;6.866;2024-03-25T01:38:20;28.35;;;6.35;;
53925;SDS011;39836;52.754;6.866;2024-03-25T01:40:46;32.33;;;8.32;;
53925;SDS011;39836;52.754;6.866;2024-03-25T01:43:12;31.95;;;7.15;;
53925;SDS011;39836;52.754;6.866;2024-03-25T01:45:38;20.90;;;5.43;;
53925;SDS011;39836;52.754;6.866;2024-03-25T01:48:07;25.10;;;6.43;;
53925;SDS011;39836;52.754;6.866;2024-03-25T01:50:39;28.60;;;6.72;;
53925;SDS011;39836;52.754;6.866;2024-03-25T01:53:08;23.80;;;5.90;;
53925;SDS011;39836;52.754;6.866;2024-03-25T01:55:34;23.70;;;5.68;;
53925;SDS011;39836;52.754;6.866;2024-03-25T01:58:01;27.27;;;6.30;;
53925;SDS011;39836;52.754;6.866;2024-03-25T02:07:49;28.10;;;6.15;;
53925;SDS011;39836;52.754;6.866;2024-03-25T02:12:43;28.52;;;7.65;;
53925;SDS011;39836;52.754;6.866;2024-03-25T02:15:11;25.52;;;7.28;;
53925;SDS011;39836;52.754;6.866;2024-03-25T02:17:38;34.03;;;7.85;;
53925;SDS011;39836;52.754;6.866;2024-03-25T02:20:04;27.02;;;7.13;;
53925;SDS011;39836;52.754;6.866;2024-03-25T02:22:33;32.10;;;7.20;;
53925;SDS011;39836;52.754;6.866;2024-03-25T02:25:00;35.38;;;7.70;;
53925;SDS011;39836;52.754;6.866;2024-03-25T02:27:26;37.40;;;8.32;;
53925;SDS011;39836;52.754;6.866;2024-03-25T02:32:30;31.27;;;6.68;;
53925;SDS011;39836;52.754;6.866;2024-03-25T02:34:57;27.83;;;7.45;;
53925;SDS011;39836;52.754;6.866;2024-03-25T02:37:23;34.63;;;8.18;;
53925;SDS011;39836;52.754;6.866;2024-03-25T02:39:50;33.15;;;7.70;;
53925;SDS011;39836;52.754;6.866;2024-03-25T02:42:17;28.48;;;7.22;;
53925;SDS011;39836;52.754;6.866;2024-03-25T02:44:44;27.33;;;6.45;;
53925;SDS011;39836;52.754;6.866;2024-03-25T02:47:10;32.05;;;7.13;;
53925;SDS011;39836;52.754;6.866;2024-03-25T02:49:36;29.42;;;7.20;;
53925;SDS011;39836;52.754;6.866;2024-03-25T02:52:02;22.50;;;6.68;;
53925;SDS011;39836;52.754;6.866;2024-03-25T02:54:28;29.20;;;6.53;;
53925;SDS011;39836;52.754;6.866;2024-03-25T02:56:54;29.88;;;7.55;;
53925;SDS011;39836;52.754;6.866;2024-03-25T02:59:19;26.80;;;6.70;;
53925;SDS011;39836;52.754;6.866;2024-03-25T03:01:45;28.23;;;7.60;;
53925;SDS011;39836;52.754;6.866;2024-03-25T03:04:11;26.05;;;6.15;;
53925;SDS011;39836;52.754;6.866;2024-03-25T03:06:36;28.17;;;7.80;;
53925;SDS011;39836;52.754;6.866;2024-03-25T03:09:02;28.67;;;7.18;;
53925;SDS011;39836;52.754;6.866;2024-03-25T03:11:27;24.38;;;7.00;;
53925;SDS011;39836;52.754;6.866;2024-03-25T03:13:53;26.05;;;7.45;;
53925;SDS011;39836;52.754;6.866;2024-03-25T03:16:19;34.85;;;7.97;;
53925;SDS011;39836;52.754;6.866;2024-03-25T03:18:44;29.73;;;6.72;;
53925;SDS011;39836;52.754;6.866;2024-03-25T03:21:10;29.45;;;7.97;;
53925;SDS011;39836;52.754;6.866;2024-03-25T03:23:35;19.55;;;6.88;;
53925;SDS011;39836;52.754;6.866;2024-03-25T03:26:02;29.40;;;7.20;;
53925;SDS011;39836;52.754;6.866;2024-03-25T03:28:27;34.22;;;6.72;;
53925;SDS011;39836;52.754;6.866;2024-03-25T03:30:53;30.77;;;7.75;;
53925;SDS011;39836;52.754;6.866;2024-03-25T03:33:19;30.38;;;7.10;;
53925;SDS011;39836;52.754;6.866;2024-03-25T03:35:45;21.60;;;6.38;;
53925;SDS011;39836;52.754;6.866;2024-03-25T03:38:10;24.25;;;6.72;;
53925;SDS011;39836;52.754;6.866;2024-03-25T03:40:36;29.65;;;6.78;;
53925;SDS011;39836;52.754;6.866;2024-03-25T03:43:02;35.83;;;7.47;;
53925;SDS011;39836;52.754;6.866;2024-03-25T03:45:32;29.52;;;6.65;;
53925;SDS011;39836;52.754;6.866;2024-03-25T03:48:01;26.88;;;7.38;;
53925;SDS011;39836;52.754;6.866;2024-03-25T03:50:27;30.85;;;7.47;;
53925;SDS011;39836;52.754;6.866;2024-03-25T03:52:53;25.23;;;6.72;;
53925;SDS011;39836;52.754;6.866;2024-03-25T03:55:18;31.65;;;7.22;;
53925;SDS011;39836;52.754;6.866;2024-03-25T03:57:44;27.17;;;7.15;;
53925;SDS011;39836;52.754;6.866;2024-03-25T04:00:10;32.85;;;8.20;;
53925;SDS011;39836;52.754;6.866;2024-03-25T04:02:37;25.35;;;6.72;;
53925;SDS011;39836;52.754;6.866;2024-03-25T04:05:03;30.77;;;7.40;;
53925;SDS011;39836;52.754;6.866;2024-03-25T04:07:29;24.77;;;6.88;;
53925;SDS011;39836;52.754;6.866;2024-03-25T04:09:57;31.88;;;7.88;;
53925;SDS011;39836;52.754;6.866;2024-03-25T04:12:23;27.05;;;6.95;;
53925;SDS011;39836;52.754;6.866;2024-03-25T04:14:49;27.33;;;6.80;;
53925;SDS011;39836;52.754;6.866;2024-03-25T04:17:19;25.50;;;6.65;;
53925;SDS011;39836;52.754;6.866;2024-03-25T04:19:48;34.55;;;7.55;;
53925;SDS011;39836;52.754;6.866;2024-03-25T04:22:15;29.08;;;7.57;;
53925;SDS011;39836;52.754;6.866;2024-03-25T04:24:42;23.95;;;6.45;;
53925;SDS011;39836;52.754;6.866;2024-03-25T04:27:08;26.67;;;6.55;;
53925;SDS011;39836;52.754;6.866;2024-03-25T04:29:34;28.33;;;7.25;;
53925;SDS011;39836;52.754;6.866;2024-03-25T04:31:59;24.17;;;7.30;;
53925;SDS011;39836;52.754;6.866;2024-03-25T04:34:25;33.17;;;8.50;;
53925;SDS011;39836;52.754;6.866;2024-03-25T04:36:51;26.92;;;7.55;;
53925;SDS011;39836;52.754;6.866;2024-03-25T04:39:17;26.40;;;7.80;;
53925;SDS011;39836;52.754;6.866;2024-03-25T04:41:43;30.58;;;8.30;;
53925;SDS011;39836;52.754;6.866;2024-03-25T04:44:09;26.42;;;7.15;;
53925;SDS011;39836;52.754;6.866;2024-03-25T04:46:34;27.50;;;6.88;;
53925;SDS011;39836;52.754;6.866;2024-03-25T04:49:01;31.52;;;7.80;;
53925;SDS011;39836;52.754;6.866;2024-03-25T04:51:27;28.77;;;7.85;;
53925;SDS011;39836;52.754;6.866;2024-03-25T04:53:53;30.05;;;7.75;;
53925;SDS011;39836;52.754;6.866;2024-03-25T04:56:18;30.00;;;7.70;;
53925;SDS011;39836;52.754;6.866;2024-03-25T04:58:45;29.48;;;7.28;;
53925;SDS011;39836;52.754;6.866;2024-03-25T05:01:10;35.38;;;8.15;;
53925;SDS011;39836;52.754;6.866;2024-03-25T05:03:36;33.90;;;7.60;;
53925;SDS011;39836;52.754;6.866;2024-03-25T05:06:02;27.13;;;7.53;;
53925;SDS011;39836;52.754;6.866;2024-03-25T05:08:28;30.98;;;7.60;;
53925;SDS011;39836;52.754;6.866;2024-03-25T05:10:53;33.60;;;8.35;;
53925;SDS011;39836;52.754;6.866;2024-03-25T05:13:19;27.60;;;7.50;;
53925;SDS011;39836;52.754;6.866;2024-03-25T05:15:53;26.35;;;7.93;;
53925;SDS011;39836;52.754;6.866;2024-03-25T05:18:19;29.75;;;8.32;;
53925;SDS011;39836;52.754;6.866;2024-03-25T05:20:45;29.85;;;8.45;;
53925;SDS011;39836;52.754;6.866;2024-03-25T05:23:10;30.80;;;8.20;;
53925;SDS011;39836;52.754;6.866;2024-03-25T05:25:36;32.53;;;8.63;;
53925;SDS011;39836;52.754;6.866;2024-03-25T05:28:03;33.40;;;8.20;;
53925;SDS011;39836;52.754;6.866;2024-03-25T05:30:29;40.03;;;10.25;;
53925;SDS011;39836;52.754;6.866;2024-03-25T05:32:55;23.17;;;7.13;;
53925;SDS011;39836;52.754;6.866;2024-03-25T05:35:21;30.85;;;6.97;;
53925;SDS011;39836;52.754;6.866;2024-03-25T05:37:46;27.08;;;7.30;;
53925;SDS011;39836;52.754;6.866;2024-03-25T05:40:12;24.50;;;7.85;;
53925;SDS011;39836;52.754;6.866;2024-03-25T05:42:40;26.05;;;7.18;;
53925;SDS011;39836;52.754;6.866;2024-03-25T05:45:09;21.80;;;7.38;;
53925;SDS011;39836;52.754;6.866;2024-03-25T05:47:35;25.50;;;7.18;;
53925;SDS011;39836;52.754;6.866;2024-03-25T05:50:00;36.40;;;8.10;;
53925;SDS011;39836;52.754;6.866;2024-03-25T05:52:29;26.92;;;7.32;;
53925;SDS011;39836;52.754;6.866;2024-03-25T05:54:54;26.15;;;7.70;;
53925;SDS011;39836;52.754;6.866;2024-03-25T05:57:20;30.42;;;8.45;;
53925;SDS011;39836;52.754;6.866;2024-03-25T05:59:46;29.73;;;8.00;;
53925;SDS011;39836;52.754;6.866;2024-03-25T06:02:11;32.80;;;8.25;;
53925;SDS011;39836;52.754;6.866;2024-03-25T06:04:37;24.73;;;8.18;;
53925;SDS011;39836;52.754;6.866;2024-03-25T06:07:02;27.08;;;7.63;;
53925;SDS011;39836;52.754;6.866;2024-03-25T06:09:28;29.92;;;7.70;;
53925;SDS011;39836;52.754;6.866;2024-03-25T06:11:54;29.90;;;7.63;;
53925;SDS011;39836;52.754;6.866;2024-03-25T06:14:20;27.23;;;7.22;;
53925;SDS011;39836;52.754;6.866;2024-03-25T06:16:45;30.58;;;7.75;;
53925;SDS011;39836;52.754;6.866;2024-03-25T06:19:11;29.73;;;7.03;;
53925;SDS011;39836;52.754;6.866;2024-03-25T06:21:37;21.23;;;6.70;;
53925;SDS011;39836;52.754;6.866;2024-03-25T06:24:03;30.20;;;7.60;;
53925;SDS011;39836;52.754;6.866;2024-03-25T06:26:29;23.25;;;7.82;;
53925;SDS011;39836;52.754;6.866;2024-03-25T06:28:55;25.67;;;7.60;;
53925;SDS011;39836;52.754;6.866;2024-03-25T06:31:20;29.88;;;7.82;;
53925;SDS011;39836;52.754;6.866;2024-03-25T06:34:04;27.80;;;7.53;;
53925;SDS011;39836;52.754;6.866;2024-03-25T06:36:39;29.73;;;7.57;;
53925;SDS011;39836;52.754;6.866;2024-03-25T06:39:05;21.45;;;7.10;;
53925;SDS011;39836;52.754;6.866;2024-03-25T06:41:31;29.98;;;8.23;;
53925;SDS011;39836;52.754;6.866;2024-03-25T06:43:57;30.10;;;7.25;;
53925;SDS011;39836;52.754;6.866;2024-03-25T06:46:22;23.00;;;8.00;;
53925;SDS011;39836;52.754;6.866;2024-03-25T06:48:48;27.30;;;8.38;;
53925;SDS011;39836;52.754;6.866;2024-03-25T06:51:13;26.92;;;7.93;;
53925;SDS011;39836;52.754;6.866;2024-03-25T06:53:39;33.97;;;8.90;;
53925;SDS011;39836;52.754;6.866;2024-03-25T06:56:05;27.25;;;7.53;;
53925;SDS011;39836;52.754;6.866;2024-03-25T06:58:31;28.60;;;8.45;;
53925;SDS011;39836;52.754;6.866;2024-03-25T07:01:03;32.45;;;8.43;;
53925;SDS011;39836;52.754;6.866;2024-03-25T07:03:30;28.98;;;8.13;;
53925;SDS011;39836;52.754;6.866;2024-03-25T07:05:56;24.27;;;7.55;;
53925;SDS011;39836;52.754;6.866;2024-03-25T07:08:22;35.72;;;7.47;;
53925;SDS011;39836;52.754;6.866;2024-03-25T07:10:48;30.50;;;7.85;;
53925;SDS011;39836;52.754;6.866;2024-03-25T07:13:13;26.10;;;7.32;;
53925;SDS011;39836;52.754;6.866;2024-03-25T07:15:39;29.63;;;7.68;;
53925;SDS011;39836;52.754;6.866;2024-03-25T07:18:05;18.77;;;7.15;;
53925;SDS011;39836;52.754;6.866;2024-03-25T07:20:31;20.85;;;6.05;;
53925;SDS011;39836;52.754;6.866;2024-03-25T07:22:57;16.52;;;5.45;;
53925;SDS011;39836;52.754;6.866;2024-03-25T07:25:23;18.48;;;6.13;;
53925;SDS011;39836;52.754;6.866;2024-03-25T07:27:49;22.50;;;6.65;;
53925;SDS011;39836;52.754;6.866;2024-03-25T07:30:15;19.30;;;6.32;;
53925;SDS011;39836;52.754;6.866;2024-03-25T07:32:40;17.08;;;5.40;;
53925;SDS011;39836;52.754;6.866;2024-03-25T07:35:06;20.88;;;5.30;;
53925;SDS011;39836;52.754;6.866;2024-03-25T07:37:34;20.98;;;6.03;;
53925;SDS011;39836;52.754;6.866;2024-03-25T07:40:00;26.40;;;11.20;;
53925;SDS011;39836;52.754;6.866;2024-03-25T07:42:25;22.08;;;6.13;;
53925;SDS011;39836;52.754;6.866;2024-03-25T07:44:51;20.02;;;5.63;;
53925;SDS011;39836;52.754;6.866;2024-03-25T07:47:17;20.40;;;6.38;;
53925;SDS011;39836;52.754;6.866;2024-03-25T07:49:43;20.15;;;5.68;;
53925;SDS011;39836;52.754;6.866;2024-03-25T07:52:09;22.25;;;6.07;;
53925;SDS011;39836;52.754;6.866;2024-03-25T07:54:35;18.15;;;5.60;;
53925;SDS011;39836;52.754;6.866;2024-03-25T07:57:02;23.55;;;6.03;;
53925;SDS011;39836;52.754;6.866;2024-03-25T07:59:29;22.17;;;6.15;;
53925;SDS011;39836;52.754;6.866;2024-03-25T08:01:55;22.95;;;6.30;;
53925;SDS011;39836;52.754;6.866;2024-03-25T08:04:20;19.25;;;5.72;;
53925;SDS011;39836;52.754;6.866;2024-03-25T08:06:46;18.65;;;6.85;;
53925;SDS011;39836;52.754;6.866;2024-03-25T08:09:12;17.80;;;6.00;;
53925;SDS011;39836;52.754;6.866;2024-03-25T08:11:40;16.40;;;5.40;;
53925;SDS011;39836;52.754;6.866;2024-03-25T08:14:08;17.75;;;5.65;;
53925;SDS011;39836;52.754;6.866;2024-03-25T08:16:34;22.13;;;6.32;;
53925;SDS011;39836;52.754;6.866;2024-03-25T08:19:00;18.25;;;5.43;;
53925;SDS011;39836;52.754;6.866;2024-03-25T08:21:26;20.35;;;6.03;;
53925;SDS011;39836;52.754;6.866;2024-03-25T08:23:51;17.45;;;5.50;;
53925;SDS011;39836;52.754;6.866;2024-03-25T08:26:17;18.55;;;5.68;;
53925;SDS011;39836;52.754;6.866;2024-03-25T08:28:43;21.33;;;5.82;;
53925;SDS011;39836;52.754;6.866;2024-03-25T08:31:08;20.13;;;5.13;;
53925;SDS011;39836;52.754;6.866;2024-03-25T08:33:34;22.65;;;6.00;;
53925;SDS011;39836;52.754;6.866;2024-03-25T08:36:00;19.52;;;5.18;;
53925;SDS011;39836;52.754;6.866;2024-03-25T08:38:26;13.77;;;4.95;;
53925;SDS011;39836;52.754;6.866;2024-03-25T08:40:57;20.17;;;4.90;;
53925;SDS011;39836;52.754;6.866;2024-03-25T17:18:24;9.13;;;2.78;;
53925;SDS011;39836;52.754;6.866;2024-03-25T17:20:49;9.88;;;3.42;;
53925;SDS011;39836;52.754;6.866;2024-03-25T17:23:22;8.63;;;2.45;;
53925;SDS011;39836;52.754;6.866;2024-03-25T17:25:48;8.48;;;2.17;;
53925;SDS011;39836;52.754;6.866;2024-03-25T20:32:00;15.20;;;6.47;;
53925;SDS011;39836;52.754;6.866;2024-03-25T20:34:33;16.35;;;6.53;;
53925;SDS011;39836;52.754;6.866;2024-03-25T20:37:03;14.25;;;6.45;;
53925;SDS011;39836;52.754;6.866;2024-03-25T20:40:11;15.23;;;7.20;;
53925;SDS011;39836;52.754;6.866;2024-03-25T20:42:31;14.80;;;6.70;;
53925;SDS011;39836;52.754;6.866;2024-03-25T20:48:25;13.88;;;5.82;;
53925;SDS011;39836;52.754;6.866;2024-03-25T20:55:13;12.48;;;6.65;;
53925;SDS011;39836;52.754;6.866;2024-03-25T21:05:59;16.13;;;6.82;;
53925;SDS011;39836;52.754;6.866;2024-03-25T21:08:34;14.57;;;6.53;;
53925;SDS011;39836;52.754;6.866;2024-03-25T21:11:09;16.65;;;6.75;;
53925;SDS011;39836;52.754;6.866;2024-03-25T21:13:40;11.77;;;6.80;;
53925;SDS011;39836;52.754;6.866;2024-03-25T21:16:06;13.57;;;6.35;;
53925;SDS011;39836;52.754;6.866;2024-03-25T21:18:32;12.43;;;6.55;;
53925;SDS011;39836;52.754;6.866;2024-03-25T21:20:58;13.02;;;5.97;;
53925;SDS011;39836;52.754;6.866;2024-03-25T21:23:24;13.85;;;6.85;;
53925;SDS011;39836;52.754;6.866;2024-03-25T21:25:50;13.27;;;6.40;;
53925;SDS011;39836;52.754;6.866;2024-03-25T21:28:15;11.23;;;5.82;;
53925;SDS011;39836;52.754;6.866;2024-03-25T21:30:41;16.70;;;6.75;;
53925;SDS011;39836;52.754;6.866;2024-03-25T21:33:07;12.43;;;6.35;;
53925;SDS011;39836;52.754;6.866;2024-03-25T21:35:33;16.88;;;6.15;;
53925;SDS011;39836;52.754;6.866;2024-03-25T21:37:58;17.27;;;6.57;;
53925;SDS011;39836;52.754;6.866;2024-03-25T21:40:24;12.70;;;6.20;;
53925;SDS011;39836;52.754;6.866;2024-03-25T21:42:50;11.27;;;6.05;;
53925;SDS011;39836;52.754;6.866;2024-03-25T21:45:15;16.42;;;6.38;;
53925;SDS011;39836;52.754;6.866;2024-03-25T21:47:41;14.93;;;6.18;;
53925;SDS011;39836;52.754;6.866;2024-03-25T21:50:07;14.32;;;6.60;;
53925;SDS011;39836;52.754;6.866;2024-03-25T21:52:32;13.10;;;6.20;;
53925;SDS011;39836;52.754;6.866;2024-03-25T21:54:58;13.05;;;6.78;;
53925;SDS011;39836;52.754;6.866;2024-03-25T21:57:23;16.50;;;6.68;;
53925;SDS011;39836;52.754;6.866;2024-03-25T21:59:49;12.18;;;5.78;;
53925;SDS011;39836;52.754;6.866;2024-03-25T22:02:15;14.32;;;6.35;;
53925;SDS011;39836;52.754;6.866;2024-03-25T22:04:40;14.63;;;6.32;;
53925;SDS011;39836;52.754;6.866;2024-03-25T22:07:06;14.90;;;6.57;;
53925;SDS011;39836;52.754;6.866;2024-03-25T22:09:31;16.17;;;5.78;;
53925;SDS011;39836;52.754;6.866;2024-03-25T22:11:57;11.93;;;6.35;;
53925;SDS011;39836;52.754;6.866;2024-03-25T22:14:23;10.90;;;5.72;;
53925;SDS011;39836;52.754;6.866;2024-03-25T22:16:49;12.48;;;6.20;;
53925;SDS011;39836;52.754;6.866;2024-03-25T22:19:14;15.30;;;5.93;;
53925;SDS011;39836;52.754;6.866;2024-03-25T22:21:40;13.32;;;5.95;;
53925;SDS011;39836;52.754;6.866;2024-03-25T22:24:06;12.07;;;6.35;;
53925;SDS011;39836;52.754;6.866;2024-03-25T22:26:31;13.88;;;7.15;;
53925;SDS011;39836;52.754;6.866;2024-03-25T22:28:57;15.05;;;5.80;;
53925;SDS011;39836;52.754;6.866;2024-03-25T22:31:23;13.27;;;5.78;;
53925;SDS011;39836;52.754;6.866;2024-03-25T22:33:48;11.50;;;6.60;;
53925;SDS011;39836;52.754;6.866;2024-03-25T22:36:14;15.32;;;6.18;;
53925;SDS011;39836;52.754;6.866;2024-03-25T22:38:39;12.73;;;6.00;;
53925;SDS011;39836;52.754;6.866;2024-03-25T22:41:05;14.75;;;5.70;;
53925;SDS011;39836;52.754;6.866;2024-03-25T22:43:31;10.60;;;5.90;;
53925;SDS011;39836;52.754;6.866;2024-03-25T22:45:57;15.73;;;5.82;;
53925;SDS011;39836;52.754;6.866;2024-03-25T22:48:24;8.70;;;5.45;;
53925;SDS011;39836;52.754;6.866;2024-03-25T22:51:00;15.52;;;5.30;;
53925;SDS011;39836;52.754;6.866;2024-03-25T22:53:27;14.23;;;5.90;;
53925;SDS011;39836;52.754;6.866;2024-03-25T22:56:03;14.88;;;5.95;;
53925;SDS011;39836;52.754;6.866;2024-03-25T22:58:31;13.88;;;5.97;;
53925;SDS011;39836;52.754;6.866;2024-03-25T23:01:08;12.75;;;6.28;;
53925;SDS011;39836;52.754;6.866;2024-03-25T23:03:37;14.02;;;6.10;;
53925;SDS011;39836;52.754;6.866;2024-03-25T23:06:03;11.82;;;5.68;;
53925;SDS011;39836;52.754;6.866;2024-03-25T23:08:30;12.80;;;5.82;;
53925;SDS011;39836;52.754;6.866;2024-03-25T23:10:59;11.02;;;5.60;;
53925;SDS011;39836;52.754;6.866;2024-03-25T23:13:26;13.80;;;5.10;;
53925;SDS011;39836;52.754;6.866;2024-03-25T23:15:52;15.00;;;5.18;;
53925;SDS011;39836;52.754;6.866;2024-03-25T23:18:19;22.13;;;6.78;;
53925;SDS011;39836;52.754;6.866;2024-03-25T23:20:47;13.20;;;5.82;;
53925;SDS011;39836;52.754;6.866;2024-03-25T23:23:14;14.25;;;5.57;;
53925;SDS011;39836;52.754;6.866;2024-03-25T23:25:41;13.93;;;6.00;;
53925;SDS011;39836;52.754;6.866;2024-03-25T23:28:07;9.15;;;5.07;;
53925;SDS011;39836;52.754;6.866;2024-03-25T23:30:34;13.98;;;5.35;;
53925;SDS011;39836;52.754;6.866;2024-03-25T23:33:00;10.95;;;5.53;;
53925;SDS011;39836;52.754;6.866;2024-03-25T23:35:26;11.93;;;5.72;;
53925;SDS011;39836;52.754;6.866;2024-03-25T23:37:52;10.35;;;5.65;;
53925;SDS011;39836;52.754;6.866;2024-03-25T23:40:18;10.63;;;4.85;;
53925;SDS011;39836;52.754;6.866;2024-03-25T23:42:44;11.95;;;5.13;;
53925;SDS011;39836;52.754;6.866;2024-03-25T23:45:10;12.55;;;5.55;;
53925;SDS011;39836;52.754;6.866;2024-03-25T23:47:36;14.68;;;5.57;;
53925;SDS011;39836;52.754;6.866;2024-03-25T23:50:02;12.60;;;5.65;;
53925;SDS011;39836;52.754;6.866;2024-03-25T23:52:30;11.13;;;5.00;;
53925;SDS011;39836;52.754;6.866;2024-03-25T23:54:56;8.40;;;4.95;;
53925;SDS011;39836;52.754;6.866;2024-03-25T23:57:22;14.60;;;5.50;;
53925;SDS011;39836;52.754;6.866;2024-03-25T23:59:49;15.48;;;5.75;;
